Time,TemperatureF,DewpointF,PressureIn,WindDirection,WindDirectionDegrees,WindSpeedMPH,WindSpeedGustMPH,Humidity,HourlyPrecipIn,Conditions,Clouds,dailyrainin,SolarRadiationWatts/m^2,SoftwareType,DateUTC
2013-04-30 02:00:00,49.0,47.0,-100.00,SSE,157,7.0,-999.0,92,0.10,,,-99.99,0.000000,,2013-04-30 07:00:00,
2013-04-30 02:42:00,49.0,47.0,-100.00,SSE,157,7.0,-999.0,92,0.10,,,-99.99,0.000000,,2013-04-30 07:42:00,
2013-04-30 02:52:00,49.0,47.0,-100.00,SSE,157,7.0,-999.0,92,0.10,,,-99.99,0.000000,,2013-04-30 07:52:00,
2013-04-30 03:00:00,50.0,48.0,-100.00,SSE,157,7.0,-999.0,91,-99.99,,,-99.99,0.000000,,2013-04-30 08:00:00,
2013-04-30 03:42:00,50.0,48.0,-100.00,SSE,157,7.0,-999.0,91,-99.99,,,-99.99,0.000000,,2013-04-30 08:42:00,
2013-04-30 03:52:00,50.0,48.0,-100.00,SSE,157,7.0,-999.0,91,-99.99,,,-99.99,0.000000,,2013-04-30 08:52:00,
2013-04-30 08:00:00,53.0,51.0,-100.00,SSE,157,12.0,-999.0,90,-99.99,,,-99.99,18.559999,,2013-04-30 13:00:00,
2013-04-30 08:41:00,53.0,51.0,-100.00,SSE,157,12.0,-999.0,90,-99.99,,,-99.99,18.559999,,2013-04-30 13:41:00,
2013-04-30 08:52:00,53.0,51.0,-100.00,SSE,157,12.0,-999.0,90,-99.99,,,-99.99,18.559999,,2013-04-30 13:52:00,
2013-04-30 13:00:00,57.0,50.0,-100.00,South,180,16.0,-999.0,78,-99.99,,,-99.99,712.239990,,2013-04-30 18:00:00,
2013-04-30 13:42:00,57.0,50.0,-100.00,South,180,16.0,-999.0,78,-99.99,,,-99.99,712.239990,,2013-04-30 18:42:00,
2013-04-30 13:52:00,57.0,50.0,-100.00,South,180,16.0,-999.0,78,-99.99,,,-99.99,712.239990,,2013-04-30 18:52:00,
2013-04-30 14:00:00,58.0,50.0,-100.00,South,180,14.0,-999.0,75,-99.99,,,-99.99,773.719971,,2013-04-30 19:00:00,
2013-04-30 14:42:00,58.0,50.0,-100.00,South,180,14.0,-999.0,75,-99.99,,,-99.99,773.719971,,2013-04-30 19:42:00,
2013-04-30 14:52:00,58.0,50.0,-100.00,South,180,14.0,-999.0,75,-99.99,,,-99.99,773.719971,,2013-04-30 19:52:00,
2013-04-30 15:00:00,59.0,51.0,-100.00,South,180,12.0,-999.0,73,-99.99,,,-99.99,634.520020,,2013-04-30 20:00:00,
2013-04-30 15:42:00,59.0,51.0,-100.00,South,180,12.0,-999.0,73,-99.99,,,-99.99,634.520020,,2013-04-30 20:42:00,
2013-04-30 15:52:00,59.0,51.0,-100.00,South,180,12.0,-999.0,73,-99.99,,,-99.99,634.520020,,2013-04-30 20:52:00,
2013-04-30 17:00:00,59.0,50.0,-100.00,South,180,10.0,-999.0,72,-99.99,,,-99.99,357.279999,,2013-04-30 22:00:00,
2013-04-30 17:42:00,59.0,50.0,-100.00,South,180,10.0,-999.0,72,-99.99,,,-99.99,357.279999,,2013-04-30 22:42:00,
2013-04-30 17:53:00,59.0,50.0,-100.00,South,180,10.0,-999.0,72,-99.99,,,-99.99,357.279999,,2013-04-30 22:53:00,
2013-04-30 18:00:00,57.0,49.0,-100.00,South,180,10.0,-999.0,75,-99.99,,,-99.99,238.960007,,2013-04-30 23:00:00,
2013-04-30 18:42:00,57.0,49.0,-100.00,South,180,10.0,-999.0,75,-99.99,,,-99.99,238.960007,,2013-04-30 23:42:00,
2013-04-30 18:52:00,57.0,49.0,-100.00,South,180,10.0,-999.0,75,-99.99,,,-99.99,238.960007,,2013-04-30 23:52:00,
2013-04-30 19:00:00,59.0,50.0,-100.00,South,180,11.0,-999.0,72,-99.99,,,-99.99,135.720001,,2013-05-01 00:00:00,
2013-04-30 19:32:00,59.0,50.0,-100.00,South,180,11.0,-999.0,72,-99.99,,,-99.99,135.720001,,2013-05-01 00:32:00,
2013-04-30 19:42:00,59.0,50.0,-100.00,South,180,11.0,-999.0,72,-99.99,,,-99.99,135.720001,,2013-05-01 00:42:00,
2013-04-30 19:52:00,59.0,50.0,-100.00,South,180,11.0,-999.0,72,-99.99,,,-99.99,135.720001,,2013-05-01 00:52:00,
2013-04-30 20:00:00,58.0,50.0,-100.00,South,180,9.0,-999.0,74,-99.99,,,-99.99,20.879999,,2013-05-01 01:00:00,
2013-04-30 20:42:00,58.0,50.0,-100.00,South,180,9.0,-999.0,74,-99.99,,,-99.99,20.879999,,2013-05-01 01:42:00,
2013-04-30 20:52:00,58.0,50.0,-100.00,South,180,9.0,-999.0,74,-99.99,,,-99.99,20.879999,,2013-05-01 01:52:00,
2013-04-30 21:00:00,56.0,49.0,-100.00,South,180,8.0,-999.0,75,-99.99,,,-99.99,0.000000,,2013-05-01 02:00:00,
2013-04-30 21:42:00,56.0,49.0,-100.00,South,180,8.0,-999.0,75,-99.99,,,-99.99,0.000000,,2013-05-01 02:42:00,
2013-04-30 21:52:00,56.0,49.0,-100.00,South,180,8.0,-999.0,75,-99.99,,,-99.99,0.000000,,2013-05-01 02:52:00,
2013-04-30 22:00:00,56.0,48.0,-100.00,South,180,7.0,-999.0,73,-99.99,,,-99.99,0.000000,,2013-05-01 03:00:00,
2013-04-30 22:43:00,56.0,48.0,-100.00,South,180,7.0,-999.0,73,-99.99,,,-99.99,0.000000,,2013-05-01 03:43:00,
2013-04-30 22:53:00,56.0,48.0,-100.00,South,180,7.0,-999.0,73,-99.99,,,-99.99,0.000000,,2013-05-01 03:53:00,
2013-04-30 23:00:00,53.0,46.0,-100.00,South,180,6.0,-999.0,75,-99.99,,,-99.99,0.000000,,2013-05-01 04:00:00,
2013-04-30 23:43:00,53.0,46.0,-100.00,South,180,6.0,-999.0,75,-99.99,,,-99.99,0.000000,,2013-05-01 04:43:00,
2013-04-30 23:52:00,53.0,46.0,-100.00,South,180,6.0,-999.0,75,-99.99,,,-99.99,0.000000,,2013-05-01 04:52:00,